createdAt,value
2023-03-13T00:01:59.938Z,76.22
2023-03-13T00:04:03.136Z,76.55
2023-03-13T00:06:05.217Z,76.46
2023-03-13T00:08:07.026Z,75.87
2023-03-13T00:10:09.582Z,77.47
2023-03-13T00:12:11.408Z,76.46
2023-03-13T00:14:13.338Z,76.54
2023-03-13T00:16:16.785Z,76.93
2023-03-13T00:18:18.692Z,76.04
2023-03-13T00:20:21.722Z,77.76
2023-03-13T00:22:23.588Z,78.23
2023-03-13T00:24:25.404Z,77.08
2023-03-13T00:26:28.243Z,77.27
2023-03-13T00:28:32.792Z,77.83
2023-03-13T00:30:34.794Z,77.53
2023-03-13T00:32:41.623Z,77.79
2023-03-13T00:34:43.228Z,78.09
2023-03-13T00:36:46.417Z,78.08
2023-03-13T00:38:48.775Z,78.36
2023-03-13T00:40:58.158Z,77.98
2023-03-13T00:42:59.973Z,78.08
2023-03-13T00:45:01.824Z,79.82
2023-03-13T00:47:03.412Z,79.28
2023-03-13T00:49:05.816Z,80.06
2023-03-13T00:51:08.204Z,80.02
2023-03-13T00:53:11.380Z,80.34
2023-03-13T00:55:13.518Z,80.54
2023-03-13T00:57:15.093Z,80.74
2023-03-13T00:59:16.757Z,81.03
2023-03-13T01:01:21.235Z,80.18
2023-03-13T01:03:24.969Z,81.17
2023-03-13T01:05:26.642Z,80.82
2023-03-13T01:07:29.530Z,81.47
2023-03-13T01:09:32.588Z,80.88
2023-03-13T01:11:36.796Z,82.32
2023-03-13T01:13:39.184Z,81.79
2023-03-13T01:15:41.032Z,81.72
2023-03-13T01:17:46.506Z,81.79
2023-03-13T01:19:48.384Z,82.04
2023-03-13T01:21:50.233Z,81.29
2023-03-13T01:23:53.488Z,82.08
2023-03-13T01:25:57.378Z,82.15
2023-03-13T01:27:58.925Z,81.11
2023-03-13T01:30:00.711Z,81.29
2023-03-13T01:32:02.558Z,80.63
2023-03-13T01:34:05.780Z,80.82
2023-03-13T01:36:08.894Z,80.67
2023-03-13T01:38:11.119Z,80.82
2023-03-13T01:40:13.848Z,81.02
2023-03-13T01:42:17.118Z,80.97
2023-03-13T01:44:22.961Z,80.62
2023-03-13T01:46:25.800Z,81.00
2023-03-13T01:48:36.098Z,80.12
2023-03-13T01:50:37.962Z,80.40
2023-03-13T01:52:39.628Z,79.75
2023-03-13T01:54:49.370Z,80.27
2023-03-13T01:56:56.937Z,81.23
2023-03-13T01:59:00.562Z,81.41
2023-03-13T02:01:04.024Z,80.95
2023-03-13T02:03:09.195Z,80.50
2023-03-13T02:05:11.450Z,80.27
2023-03-13T02:07:19.962Z,80.18
2023-03-13T02:09:26.323Z,79.86
2023-03-13T02:11:43.958Z,80.50
2023-03-13T02:13:46.835Z,80.01
2023-03-13T02:15:50.285Z,80.37
2023-03-13T02:17:52.498Z,80.38
2023-03-13T02:19:54.087Z,80.38
2023-03-13T02:22:02.746Z,79.96
2023-03-13T02:24:14.844Z,78.89
2023-03-13T02:26:17.931Z,80.74
2023-03-13T02:28:23.837Z,80.02
2023-03-13T02:30:25.899Z,79.98
2023-03-13T02:32:30.367Z,80.38
2023-03-13T02:34:35.968Z,80.02
2023-03-13T02:36:37.875Z,79.77
2023-03-13T02:38:45.493Z,79.07
2023-03-13T02:40:49.550Z,79.95
2023-03-13T02:42:56.070Z,78.96
2023-03-13T02:44:58.003Z,79.38
2023-03-13T02:46:59.682Z,79.32
2023-03-13T02:49:20.411Z,79.07
2023-03-13T02:51:28.359Z,80.22
2023-03-13T02:53:31.165Z,80.35
2023-03-13T02:55:37.788Z,80.35
2023-03-13T02:57:39.458Z,80.17
2023-03-13T02:59:42.828Z,80.84
2023-03-13T03:01:44.495Z,80.14
2023-03-13T03:03:46.277Z,80.39
2023-03-13T03:05:48.081Z,80.42
2023-03-13T03:07:49.943Z,81.12
2023-03-13T03:09:51.607Z,80.59
2023-03-13T03:11:53.402Z,80.41
2023-03-13T03:13:55.040Z,80.42
2023-03-13T03:15:57.896Z,81.39
2023-03-13T03:17:59.799Z,81.05
2023-03-13T03:20:01.409Z,81.22
2023-03-13T03:22:03.832Z,81.10
2023-03-13T03:24:06.366Z,80.60
2023-03-13T03:26:08.137Z,81.93
2023-03-13T03:28:09.957Z,81.41
2023-03-13T03:30:12.837Z,80.93
2023-03-13T03:32:16.010Z,81.61
2023-03-13T03:34:17.922Z,80.92
2023-03-13T03:36:21.741Z,81.02
2023-03-13T03:38:23.671Z,80.91
2023-03-13T03:40:25.345Z,82.03
2023-03-13T03:42:27.009Z,81.61
2023-03-13T03:44:28.582Z,81.05
2023-03-13T03:46:30.362Z,80.71
2023-03-13T03:48:34.024Z,81.55
2023-03-13T03:50:35.993Z,81.17
2023-03-13T03:52:38.250Z,81.29
2023-03-13T03:54:40.070Z,80.82
2023-03-13T03:56:41.919Z,81.54
2023-03-13T03:58:43.686Z,80.94
2023-03-13T04:00:46.130Z,81.76
2023-03-13T04:02:47.947Z,82.12
2023-03-13T04:04:51.042Z,82.04
2023-03-13T04:06:52.878Z,81.68
2023-03-13T04:08:54.446Z,81.31
2023-03-13T04:10:56.342Z,81.63
2023-03-13T04:12:57.917Z,82.19
2023-03-13T04:14:59.814Z,81.87
2023-03-13T04:17:01.630Z,81.25
2023-03-13T04:19:03.504Z,80.80
2023-03-13T04:21:06.700Z,80.92
2023-03-13T04:23:08.462Z,81.21
2023-03-13T04:25:10.917Z,82.23
2023-03-13T04:27:12.977Z,81.47
2023-03-13T04:29:14.719Z,81.29
2023-03-13T04:31:16.432Z,82.27
2023-03-13T04:33:18.322Z,81.85
2023-03-13T04:35:20.369Z,81.88
2023-03-13T04:37:23.751Z,82.21
2023-03-13T04:39:25.696Z,81.54
2023-03-13T04:41:27.815Z,81.04
2023-03-13T04:43:29.370Z,81.99
2023-03-13T04:45:31.123Z,82.09
2023-03-13T04:47:32.991Z,81.59
2023-03-13T04:49:34.639Z,81.25
2023-03-13T04:51:36.450Z,82.42
2023-03-13T04:53:39.308Z,82.00
2023-03-13T04:55:41.775Z,82.15
2023-03-13T04:57:43.573Z,82.29
2023-03-13T04:59:45.453Z,82.44
2023-03-13T05:01:47.452Z,83.37
2023-03-13T05:03:49.305Z,82.87
2023-03-13T05:05:50.860Z,82.50
2023-03-13T05:07:52.472Z,82.49
2023-03-13T05:09:55.430Z,82.20
2023-03-13T05:11:58.280Z,82.35
2023-03-13T05:14:00.362Z,82.67
2023-03-13T05:16:02.821Z,82.59
2023-03-13T05:18:04.848Z,82.05
2023-03-13T05:20:08.161Z,82.76
2023-03-13T05:22:10.034Z,83.09
2023-03-13T05:24:11.918Z,82.62
2023-03-13T05:26:14.970Z,83.26
2023-03-13T05:28:16.729Z,83.29
2023-03-13T05:30:18.366Z,84.16
2023-03-13T05:32:20.102Z,83.33
2023-03-13T05:34:21.962Z,83.89
2023-03-13T05:36:23.589Z,83.61
2023-03-13T05:38:25.925Z,84.10
2023-03-13T05:40:27.732Z,84.13
2023-03-13T05:42:30.779Z,83.45
2023-03-13T05:44:32.720Z,83.42
2023-03-13T05:46:35.115Z,83.65
2023-03-13T05:48:37.149Z,83.45
2023-03-13T05:50:39.834Z,83.30
2023-03-13T05:52:41.554Z,83.81
2023-03-13T05:54:43.408Z,83.08
2023-03-13T05:56:45.699Z,83.67
2023-03-13T05:58:48.790Z,83.07
2023-03-13T06:00:50.565Z,82.98
2023-03-13T06:02:52.231Z,82.45
2023-03-13T06:04:54.045Z,83.00
2023-03-13T06:06:56.062Z,82.57
2023-03-13T06:08:57.678Z,82.82
2023-03-13T06:11:00.021Z,82.92
2023-03-13T06:13:17.212Z,83.01
2023-03-13T06:15:22.987Z,82.29
2023-03-13T06:17:24.662Z,82.78
2023-03-13T06:19:26.394Z,83.54
2023-03-13T06:21:28.107Z,83.35
2023-03-13T06:23:29.755Z,83.30
2023-03-13T06:25:31.933Z,83.27
2023-03-13T06:27:33.573Z,83.43
2023-03-13T06:29:35.165Z,83.44
2023-03-13T06:31:38.296Z,83.76
2023-03-13T06:33:40.202Z,83.38
2023-03-13T06:35:55.721Z,83.27
2023-03-13T06:37:58.652Z,83.89
2023-03-13T06:40:00.508Z,83.07
2023-03-13T06:42:02.376Z,82.89
2023-03-13T06:44:04.138Z,82.78
2023-03-13T06:46:05.785Z,83.17
2023-03-13T06:48:08.952Z,83.98
2023-03-13T06:50:11.675Z,83.89
2023-03-13T06:52:13.613Z,83.71
2023-03-13T06:54:15.394Z,83.69
2023-03-13T06:56:17.016Z,83.78
2023-03-13T06:58:31.410Z,83.57
2023-03-13T07:00:34.996Z,83.45
2023-03-13T07:02:36.552Z,82.76
2023-03-13T07:04:39.599Z,82.87
2023-03-13T07:06:41.141Z,83.04
2023-03-13T07:08:43.081Z,83.42
2023-03-13T07:10:45.154Z,82.74
2023-03-13T07:12:47.003Z,83.10
2023-03-13T07:14:48.716Z,82.95
2023-03-13T07:16:50.662Z,82.77
2023-03-13T07:18:52.327Z,83.40
2023-03-13T07:20:57.297Z,83.98
2023-03-13T07:22:59.113Z,83.28
2023-03-13T07:25:00.826Z,83.42
2023-03-13T07:27:07.400Z,83.60
2023-03-13T07:29:09.640Z,83.73
2023-03-13T07:31:13.581Z,83.78
2023-03-13T07:33:15.506Z,83.14
2023-03-13T07:35:17.579Z,83.75
2023-03-13T07:37:20.478Z,83.39
2023-03-13T07:39:22.458Z,83.66
2023-03-13T07:41:24.249Z,83.13
2023-03-13T07:43:26.551Z,83.88
2023-03-13T07:45:28.921Z,83.59
2023-03-13T07:47:30.451Z,82.98
2023-03-13T07:49:32.300Z,83.01
2023-03-13T07:51:43.619Z,83.99
2023-03-13T07:53:47.787Z,83.58
2023-03-13T07:55:54.085Z,83.43
2023-03-13T07:57:55.913Z,84.83
2023-03-13T07:59:57.549Z,84.22
2023-03-13T08:01:59.203Z,84.95
2023-03-13T08:04:01.069Z,84.44
2023-03-13T08:06:05.681Z,84.62
2023-03-13T08:08:07.814Z,85.00
2023-03-13T08:10:14.407Z,84.92
2023-03-13T08:12:16.054Z,84.83
2023-03-13T08:14:18.575Z,84.56
2023-03-13T08:16:22.095Z,84.72
2023-03-13T08:18:24.207Z,85.44
2023-03-13T08:20:26.673Z,85.90
2023-03-13T08:22:28.555Z,84.99
2023-03-13T08:24:30.380Z,84.73
2023-03-13T08:26:35.512Z,84.80
2023-03-13T08:28:38.276Z,85.52
2023-03-13T08:30:40.046Z,84.67
2023-03-13T08:32:41.952Z,85.53
2023-03-13T08:34:44.247Z,85.10
2023-03-13T08:36:45.861Z,84.42
2023-03-13T08:38:48.170Z,85.27
2023-03-13T08:40:50.229Z,84.01
2023-03-13T08:42:54.156Z,85.00
2023-03-13T08:44:55.783Z,84.82
2023-03-13T08:46:58.195Z,84.56
2023-03-13T08:49:00.052Z,84.97
2023-03-13T08:51:03.092Z,85.22
2023-03-13T08:53:04.900Z,84.83
2023-03-13T08:55:08.002Z,85.31
2023-03-13T08:57:09.589Z,85.76
2023-03-13T08:59:12.777Z,85.18
2023-03-13T09:01:15.381Z,85.87
2023-03-13T09:03:17.216Z,86.67
2023-03-13T09:05:18.815Z,86.67
2023-03-13T09:07:20.683Z,85.93
2023-03-13T09:09:24.542Z,86.52
2023-03-13T09:11:27.639Z,86.84
2023-03-13T09:13:31.464Z,85.95
2023-03-13T09:15:34.435Z,86.24
2023-03-13T09:17:36.216Z,86.57
2023-03-13T09:19:39.063Z,85.92
2023-03-13T09:21:43.146Z,86.06
2023-03-13T09:23:45.045Z,85.41
2023-03-13T09:25:47.207Z,85.66
2023-03-13T09:27:49.320Z,86.38
2023-03-13T09:29:51.108Z,86.39
2023-03-13T09:31:54.205Z,86.28
2023-03-13T09:33:56.206Z,86.13
2023-03-13T09:35:57.934Z,86.42
2023-03-13T09:37:59.831Z,86.84
2023-03-13T09:40:01.905Z,87.12
2023-03-13T09:42:11.107Z,86.24
2023-03-13T09:44:18.547Z,86.25
2023-03-13T09:46:27.024Z,86.19
2023-03-13T09:48:33.564Z,86.41
2023-03-13T09:50:39.492Z,86.35
2023-03-13T09:52:42.879Z,86.86
2023-03-13T09:54:50.778Z,86.45
2023-03-13T09:56:56.648Z,88.26
2023-03-13T09:59:05.474Z,87.02
2023-03-13T10:01:09.786Z,86.68
2023-03-13T10:03:20.041Z,86.57
2023-03-13T10:05:25.864Z,86.99
2023-03-13T10:07:27.717Z,86.72
2023-03-13T10:09:31.513Z,87.43
2023-03-13T10:11:43.550Z,87.70
2023-03-13T10:13:49.822Z,88.29
2023-03-13T10:15:56.225Z,88.57
2023-03-13T10:17:59.603Z,87.78
2023-03-13T10:20:08.612Z,87.53
2023-03-13T10:22:16.434Z,87.00
2023-03-13T10:24:31.023Z,86.82
2023-03-13T10:26:36.061Z,87.88
2023-03-13T10:28:37.623Z,87.91
2023-03-13T10:30:43.441Z,88.01
2023-03-13T10:32:45.670Z,88.18
2023-03-13T10:34:53.533Z,87.53
2023-03-13T10:36:59.081Z,87.17
2023-03-13T10:39:09.329Z,87.37
2023-03-13T10:41:24.041Z,86.83
2023-03-13T10:43:28.177Z,87.66
2023-03-13T10:45:33.777Z,87.67
2023-03-13T10:47:35.999Z,87.85
2023-03-13T10:49:48.600Z,88.07
2023-03-13T10:51:52.816Z,88.08
2023-03-13T10:53:54.411Z,88.68
2023-03-13T10:56:03.129Z,88.81
2023-03-13T10:58:06.033Z,88.71
2023-03-13T11:00:40.483Z,87.86
2023-03-13T11:02:44.970Z,88.08
2023-03-13T11:04:46.599Z,87.79
2023-03-13T11:06:51.935Z,88.05
2023-03-13T11:09:00.606Z,88.00
2023-03-13T11:11:05.707Z,88.28
2023-03-13T11:13:36.997Z,87.64
2023-03-13T11:15:47.142Z,88.07
2023-03-13T11:17:58.664Z,88.04
2023-03-13T11:20:10.674Z,88.53
2023-03-13T11:22:50.854Z,88.22
2023-03-13T11:25:02.510Z,88.29
2023-03-13T11:27:15.632Z,88.56
2023-03-13T11:29:28.205Z,88.74
2023-03-13T11:31:33.649Z,89.06
2023-03-13T11:33:40.100Z,88.51
2023-03-13T11:35:47.768Z,88.79
2023-03-13T11:37:55.664Z,89.03
2023-03-13T11:40:05.771Z,88.84
2023-03-13T11:42:24.679Z,88.77
2023-03-13T11:44:45.426Z,88.07
2023-03-13T11:47:00.327Z,87.92
2023-03-13T11:49:41.010Z,87.88
2023-03-13T11:51:58.541Z,87.71
2023-03-13T11:54:23.917Z,88.76
2023-03-13T11:56:32.004Z,87.84
2023-03-13T11:58:56.242Z,87.92
2023-03-13T12:01:01.840Z,87.50
2023-03-13T12:03:12.157Z,87.68
2023-03-13T12:05:18.583Z,87.25
2023-03-13T12:07:27.245Z,87.51
2023-03-13T12:09:34.483Z,87.57
2023-03-13T12:11:40.883Z,87.64
2023-03-13T12:13:46.526Z,87.59
2023-03-13T12:15:54.720Z,87.29
2023-03-13T12:18:02.073Z,87.18
2023-03-13T12:20:13.967Z,87.03
2023-03-13T12:22:23.344Z,87.08
2023-03-13T12:24:33.140Z,86.71
2023-03-13T12:26:42.768Z,86.43
2023-03-13T12:28:51.892Z,86.54
2023-03-13T12:31:04.474Z,87.40
2023-03-13T12:33:19.657Z,86.95
2023-03-13T12:35:26.162Z,86.89
2023-03-13T12:37:34.817Z,86.65
2023-03-13T12:39:42.336Z,86.59
2023-03-13T12:41:47.249Z,87.21
2023-03-13T12:44:04.505Z,86.72
2023-03-13T12:46:32.369Z,86.55
2023-03-13T12:48:57.468Z,86.38
2023-03-13T12:51:14.580Z,85.77
2023-03-13T12:53:45.947Z,84.74
2023-03-13T12:56:13.266Z,85.35
2023-03-13T12:58:37.953Z,84.70
2023-03-13T13:00:42.925Z,84.17
2023-03-13T13:02:46.446Z,84.08
2023-03-13T13:04:50.899Z,83.78
2023-03-13T13:06:56.794Z,82.66
2023-03-13T13:09:15.088Z,82.42
2023-03-13T13:11:51.270Z,81.92
2023-03-13T13:13:52.898Z,81.84
2023-03-13T13:16:01.136Z,81.43
2023-03-13T13:18:16.146Z,81.60
2023-03-13T13:20:37.483Z,81.14
2023-03-13T13:22:51.263Z,81.02
2023-03-13T13:24:55.846Z,80.32
2023-03-13T13:26:57.504Z,80.56
2023-03-13T13:29:01.802Z,80.47
2023-03-13T13:31:41.673Z,79.70
2023-03-13T13:33:44.932Z,78.06
2023-03-13T13:35:47.787Z,78.34
2023-03-13T13:37:49.849Z,77.41
2023-03-13T13:39:52.963Z,77.48
2023-03-13T13:41:54.832Z,77.26
2023-03-13T13:44:21.254Z,76.52
2023-03-13T13:46:24.903Z,74.94
2023-03-13T13:48:30.697Z,74.98
2023-03-13T13:50:34.033Z,74.91
2023-03-13T13:52:37.572Z,74.04
2023-03-13T13:54:55.657Z,74.20
2023-03-13T13:56:59.780Z,73.84
2023-03-13T13:59:06.105Z,73.35
2023-03-13T14:01:16.564Z,73.06
2023-03-13T14:03:24.070Z,72.71
2023-03-13T14:05:29.861Z,72.44
2023-03-13T14:07:48.814Z,73.09
2023-03-13T14:10:00.340Z,71.13
2023-03-13T14:12:02.092Z,71.88
2023-03-13T14:14:11.372Z,72.16
2023-03-13T14:16:24.310Z,71.60
2023-03-13T14:18:28.998Z,70.62
2023-03-13T14:20:33.693Z,71.17
2023-03-13T14:22:47.357Z,70.98
2023-03-13T14:24:58.541Z,71.46
2023-03-13T14:27:00.374Z,70.27
2023-03-13T14:29:03.082Z,70.50
2023-03-13T14:31:05.865Z,69.67
2023-03-13T14:33:07.594Z,69.72
2023-03-13T14:35:11.549Z,69.22
2023-03-13T14:37:35.171Z,70.25
2023-03-13T14:39:43.728Z,68.90
2023-03-13T14:41:48.813Z,67.88
2023-03-13T14:43:50.895Z,67.89
2023-03-13T14:45:53.103Z,67.12
2023-03-13T14:47:55.603Z,67.55
2023-03-13T14:50:00.038Z,66.60
2023-03-13T14:52:05.466Z,66.39
2023-03-13T14:54:26.603Z,66.80
2023-03-13T14:56:35.094Z,66.27
2023-03-13T14:58:36.952Z,65.52
2023-03-13T15:00:41.324Z,65.59
2023-03-13T15:02:43.054Z,66.02
2023-03-13T15:04:52.845Z,65.65
2023-03-13T15:07:02.973Z,65.32
2023-03-13T15:09:15.156Z,64.84
2023-03-13T15:11:20.192Z,64.03
2023-03-13T15:13:28.164Z,64.95
2023-03-13T15:15:29.924Z,64.45
2023-03-13T15:17:31.494Z,63.48
2023-03-13T15:19:33.350Z,63.73
2023-03-13T15:21:35.247Z,62.86
2023-03-13T15:23:37.062Z,63.11
2023-03-13T15:25:38.891Z,62.71
2023-03-13T15:27:40.500Z,62.72
2023-03-13T15:29:43.679Z,62.97
2023-03-13T15:31:45.554Z,63.04
2023-03-13T15:33:48.880Z,63.03
2023-03-13T15:35:50.625Z,63.50
2023-03-13T15:37:52.708Z,63.31
2023-03-13T15:39:55.268Z,62.96
2023-03-13T15:41:57.140Z,63.25
2023-03-13T15:43:58.979Z,63.13
2023-03-13T15:46:04.382Z,63.66
2023-03-13T15:48:15.589Z,63.92
2023-03-13T15:50:19.409Z,63.40
2023-03-13T15:52:21.972Z,62.68
2023-03-13T15:54:23.825Z,62.84
2023-03-13T15:56:36.241Z,63.19
2023-03-13T15:58:38.023Z,62.22
2023-03-13T16:00:40.662Z,63.08
2023-03-13T16:02:43.900Z,62.52
2023-03-13T16:04:46.374Z,62.56
2023-03-13T16:06:48.016Z,62.44
2023-03-13T16:08:49.826Z,62.58
2023-03-13T16:10:51.603Z,62.82
2023-03-13T16:12:53.562Z,62.58
2023-03-13T16:14:55.136Z,62.77
2023-03-13T16:16:56.915Z,62.47
2023-03-13T16:19:00.240Z,62.60
2023-03-13T16:21:01.851Z,62.83
2023-03-13T16:23:03.770Z,63.04
2023-03-13T16:25:06.730Z,63.04
2023-03-13T16:27:16.431Z,63.12
2023-03-13T16:29:18.160Z,63.07
2023-03-13T16:31:23.083Z,63.44
2023-03-13T16:33:24.789Z,63.88
2023-03-13T16:35:29.535Z,63.38
2023-03-13T16:37:32.400Z,63.99
2023-03-13T16:39:34.057Z,63.59
2023-03-13T16:41:36.047Z,63.75
2023-03-13T16:43:38.167Z,63.73
2023-03-13T16:45:39.719Z,64.10
2023-03-13T16:47:43.589Z,64.74
2023-03-13T16:49:47.447Z,64.57
2023-03-13T16:51:50.870Z,64.80
2023-03-13T16:53:54.275Z,64.78
2023-03-13T16:55:56.575Z,64.72
2023-03-13T16:58:00.767Z,65.06
2023-03-13T17:00:02.412Z,65.15
2023-03-13T17:02:04.022Z,65.38
2023-03-13T17:04:05.948Z,65.63
2023-03-13T17:06:14.867Z,65.82
2023-03-13T17:08:18.203Z,65.89
2023-03-13T17:10:22.727Z,65.48
2023-03-13T17:12:24.429Z,65.74
2023-03-13T17:14:25.924Z,65.68
2023-03-13T17:16:31.819Z,65.97
2023-03-13T17:18:34.395Z,65.89
2023-03-13T17:20:36.101Z,65.66
2023-03-13T17:22:37.800Z,66.00
2023-03-13T17:24:42.219Z,66.29
2023-03-13T17:26:44.040Z,65.93
2023-03-13T17:28:47.574Z,65.97
2023-03-13T17:30:49.256Z,65.97
2023-03-13T17:32:51.531Z,65.98
2023-03-13T17:34:53.378Z,65.92
2023-03-13T17:36:55.191Z,66.17
2023-03-13T17:38:59.308Z,66.39
2023-03-13T17:41:02.690Z,65.99
2023-03-13T17:43:04.626Z,65.75
2023-03-13T17:45:07.833Z,66.44
2023-03-13T17:47:13.336Z,66.29
2023-03-13T17:49:17.183Z,66.44
2023-03-13T17:51:22.168Z,66.11
2023-03-13T17:53:24.180Z,65.88
2023-03-13T17:55:25.851Z,66.14
2023-03-13T17:57:29.263Z,65.86
2023-03-13T17:59:30.889Z,65.85
2023-03-13T18:01:34.733Z,66.24
2023-03-13T18:03:36.419Z,66.14
2023-03-13T18:05:38.000Z,65.92
2023-03-13T18:07:40.047Z,65.91
2023-03-13T18:09:42.086Z,65.90
2023-03-13T18:11:44.129Z,66.29
2023-03-13T18:13:47.653Z,66.36
2023-03-13T18:15:49.340Z,66.35
2023-03-13T18:17:52.134Z,66.23
2023-03-13T18:19:53.726Z,66.37
2023-03-13T18:21:56.105Z,66.78
2023-03-13T18:23:57.908Z,66.21
2023-03-13T18:25:59.444Z,66.51
2023-03-13T18:28:01.462Z,66.44
2023-03-13T18:30:14.372Z,66.92
2023-03-13T18:32:18.298Z,66.56
2023-03-13T18:34:20.235Z,66.60
2023-03-13T18:36:21.784Z,66.72
2023-03-13T18:38:23.604Z,66.59
2023-03-13T18:40:27.475Z,66.59
2023-03-13T18:42:29.108Z,66.74
2023-03-13T18:44:30.663Z,66.83
2023-03-13T18:46:33.720Z,66.63
2023-03-13T18:48:35.798Z,66.63
2023-03-13T18:50:37.717Z,66.77
2023-03-13T18:52:39.710Z,66.80
2023-03-13T18:54:41.283Z,66.52
2023-03-13T18:56:45.595Z,66.38
2023-03-13T18:58:50.489Z,66.46
2023-03-13T19:00:52.780Z,66.56
2023-03-13T19:02:56.407Z,66.72
2023-03-13T19:04:57.910Z,66.44
2023-03-13T19:06:59.486Z,66.87
2023-03-13T19:09:04.081Z,66.74
2023-03-13T19:11:12.692Z,67.07
2023-03-13T19:13:14.711Z,66.91
2023-03-13T19:15:17.123Z,66.89
2023-03-13T19:17:23.752Z,66.99
2023-03-13T19:19:27.111Z,67.15
2023-03-13T19:21:31.042Z,67.29
2023-03-13T19:23:32.776Z,67.43
2023-03-13T19:25:34.399Z,67.43
2023-03-13T19:27:36.144Z,67.50
2023-03-13T19:29:37.770Z,67.81
2023-03-13T19:31:39.959Z,67.62
2023-03-13T19:33:42.094Z,67.67
2023-03-13T19:35:45.228Z,68.26
2023-03-13T19:37:46.891Z,67.98
2023-03-13T19:39:48.565Z,68.44
2023-03-13T19:41:50.796Z,68.78
2023-03-13T19:43:52.635Z,68.79
2023-03-13T19:45:54.464Z,68.77
2023-03-13T19:47:56.186Z,68.93
2023-03-13T19:49:58.682Z,68.89
2023-03-13T19:52:01.795Z,68.82
2023-03-13T19:54:03.606Z,69.17
2023-03-13T19:56:15.304Z,69.23
2023-03-13T19:58:17.155Z,69.07
2023-03-13T20:00:21.023Z,69.31
2023-03-13T20:02:22.667Z,69.56
2023-03-13T20:04:24.309Z,69.61
2023-03-13T20:06:28.402Z,69.72
2023-03-13T20:08:31.546Z,70.11
2023-03-13T20:10:33.138Z,70.07
2023-03-13T20:12:34.687Z,70.39
2023-03-13T20:14:36.322Z,69.73
2023-03-13T20:16:38.199Z,70.10
2023-03-13T20:18:41.244Z,70.22
2023-03-13T20:20:42.760Z,70.37
2023-03-13T20:22:44.362Z,70.62
2023-03-13T20:24:49.321Z,70.19
2023-03-13T20:26:51.220Z,70.57
2023-03-13T20:28:53.147Z,71.00
2023-03-13T20:30:54.830Z,70.71
2023-03-13T20:32:59.717Z,70.87
2023-03-13T20:35:01.597Z,71.02
2023-03-13T20:37:03.165Z,70.97
2023-03-13T20:39:05.182Z,71.15
2023-03-13T20:41:08.587Z,70.92
2023-03-13T20:43:10.216Z,71.01
2023-03-13T20:45:12.017Z,71.13
2023-03-13T20:47:13.770Z,71.24
2023-03-13T20:49:15.368Z,71.32
2023-03-13T20:51:17.356Z,71.05
2023-03-13T20:53:19.749Z,71.04
2023-03-13T20:55:21.771Z,71.29
2023-03-13T20:57:24.946Z,71.12
2023-03-13T20:59:26.868Z,71.08
2023-03-13T21:01:31.902Z,70.57
2023-03-13T21:03:34.581Z,70.95
2023-03-13T21:05:38.486Z,71.33
2023-03-13T21:07:40.322Z,71.24
2023-03-13T21:09:42.111Z,71.26
2023-03-13T21:11:43.683Z,71.03
2023-03-13T21:13:47.785Z,71.41
2023-03-13T21:15:50.199Z,71.20
2023-03-13T21:17:51.816Z,71.18
2023-03-13T21:19:53.439Z,71.04
2023-03-13T21:21:55.308Z,70.97
2023-03-13T21:23:57.161Z,70.92
2023-03-13T21:25:58.942Z,70.86
2023-03-13T21:28:00.566Z,70.79
2023-03-13T21:30:04.875Z,71.30
2023-03-13T21:32:06.484Z,70.86
2023-03-13T21:34:10.349Z,71.07
2023-03-13T21:36:14.044Z,71.04
2023-03-13T21:38:15.653Z,70.82
2023-03-13T21:40:17.714Z,71.01
2023-03-13T21:42:21.945Z,70.84
2023-03-13T21:44:24.729Z,71.04
2023-03-13T21:46:29.528Z,70.77
2023-03-13T21:48:31.427Z,71.09
2023-03-13T21:50:33.267Z,71.57
2023-03-13T21:52:38.029Z,71.84
2023-03-13T21:54:42.106Z,71.68
2023-03-13T21:56:43.645Z,71.35
2023-03-13T21:58:45.822Z,71.40
2023-03-13T22:00:47.422Z,71.01
2023-03-13T22:02:50.712Z,71.07
2023-03-13T22:04:52.608Z,71.14
2023-03-13T22:06:54.620Z,71.08
2023-03-13T22:08:56.442Z,71.09
2023-03-13T22:10:58.784Z,70.97
2023-03-13T22:13:00.638Z,70.94
2023-03-13T22:15:02.514Z,71.14
2023-03-13T22:17:04.162Z,70.96
2023-03-13T22:19:07.355Z,71.06
2023-03-13T22:21:09.194Z,70.88
2023-03-13T22:23:11.584Z,71.02
2023-03-13T22:25:13.246Z,70.71
2023-03-13T22:27:15.090Z,70.58
2023-03-13T22:29:16.935Z,70.60
2023-03-13T22:31:18.578Z,70.76
2023-03-13T22:33:20.172Z,70.07
2023-03-13T22:35:23.166Z,70.41
2023-03-13T22:37:24.894Z,70.25
2023-03-13T22:39:26.444Z,69.86
2023-03-13T22:41:28.147Z,69.79
2023-03-13T22:43:30.237Z,70.04
2023-03-13T22:45:32.549Z,69.85
2023-03-13T22:47:34.091Z,70.08
2023-03-13T22:49:35.696Z,69.70
2023-03-13T22:51:38.877Z,69.62
2023-03-13T22:53:42.939Z,69.64
2023-03-13T22:55:44.560Z,69.55
2023-03-13T22:57:46.358Z,69.16
2023-03-13T22:59:47.911Z,69.49
2023-03-13T23:01:49.551Z,69.75
2023-03-13T23:03:51.318Z,69.62
2023-03-13T23:05:52.953Z,69.70
2023-03-13T23:07:55.851Z,69.44
2023-03-13T23:09:58.687Z,69.54
2023-03-13T23:12:00.322Z,69.52
2023-03-13T23:14:01.999Z,69.64
2023-03-13T23:16:05.882Z,69.82
2023-03-13T23:18:08.139Z,69.65
2023-03-13T23:20:11.420Z,69.72
2023-03-13T23:22:13.108Z,69.75
2023-03-13T23:24:16.620Z,70.04
2023-03-13T23:26:18.315Z,69.91
2023-03-13T23:28:19.859Z,70.08
2023-03-13T23:30:21.661Z,70.42
2023-03-13T23:32:23.208Z,70.40
2023-03-13T23:34:24.844Z,70.60
2023-03-13T23:36:26.897Z,70.60
2023-03-13T23:38:28.742Z,70.53
2023-03-13T23:40:32.398Z,70.60
2023-03-13T23:42:34.717Z,70.83
2023-03-13T23:44:36.708Z,70.74
2023-03-13T23:46:38.529Z,70.68
2023-03-13T23:48:40.120Z,70.80
2023-03-13T23:50:41.742Z,70.68
2023-03-13T23:52:43.540Z,70.92
2023-03-13T23:54:45.222Z,70.48
2023-03-13T23:56:48.375Z,70.72
2023-03-13T23:58:52.206Z,70.94
